sensor_id;sensor_type;location;lat;lon;timestamp;pressure;altitude;pressure_sealevel;temperature;humidity
55990;BME280;41875;55.806;38.082;2023-02-01T00:02:31;98058.63;;;2.20;66.67
55990;BME280;41875;55.806;38.082;2023-02-01T00:05:01;98056.63;;;2.51;66.18
55990;BME280;41875;55.806;38.082;2023-02-01T00:07:30;98067.09;;;2.41;66.08
55990;BME280;41875;55.806;38.082;2023-02-01T00:09:58;98057.81;;;2.29;66.56
55990;BME280;41875;55.806;38.082;2023-02-01T00:12:29;98060.44;;;2.19;66.94
55990;BME280;41875;55.806;38.082;2023-02-01T00:15:03;98057.06;;;2.47;66.28
55990;BME280;41875;55.806;38.082;2023-02-01T00:17:31;98057.19;;;2.45;65.46
55990;BME280;41875;55.806;38.082;2023-02-01T00:20:02;98052.78;;;1.98;66.80
55990;BME280;41875;55.806;38.082;2023-02-01T00:22:30;98058.47;;;2.41;66.03
55990;BME280;41875;55.806;38.082;2023-02-01T00:24:59;98066.06;;;2.24;66.01
55990;BME280;41875;55.806;38.082;2023-02-01T00:27:29;98060.50;;;2.37;65.79
55990;BME280;41875;55.806;38.082;2023-02-01T00:29:58;98061.06;;;1.83;67.41
55990;BME280;41875;55.806;38.082;2023-02-01T00:32:30;98067.81;;;2.34;66.63
55990;BME280;41875;55.806;38.082;2023-02-01T00:35:00;98056.94;;;1.71;67.70
55990;BME280;41875;55.806;38.082;2023-02-01T00:37:29;98066.84;;;2.35;66.58
55990;BME280;41875;55.806;38.082;2023-02-01T00:39:58;98062.38;;;2.83;64.77
55990;BME280;41875;55.806;38.082;2023-02-01T00:42:26;98069.66;;;2.23;66.12
55990;BME280;41875;55.806;38.082;2023-02-01T00:44:54;98052.66;;;2.75;64.15
55990;BME280;41875;55.806;38.082;2023-02-01T00:47:23;98069.47;;;2.35;65.37
55990;BME280;41875;55.806;38.082;2023-02-01T00:49:51;98070.38;;;2.53;65.16
55990;BME280;41875;55.806;38.082;2023-02-01T00:52:21;98066.00;;;2.44;64.66
55990;BME280;41875;55.806;38.082;2023-02-01T00:54:50;98071.06;;;1.78;66.78
55990;BME280;41875;55.806;38.082;2023-02-01T00:57:19;98058.78;;;2.18;66.00
55990;BME280;41875;55.806;38.082;2023-02-01T00:59:48;98067.84;;;2.14;65.66
55990;BME280;41875;55.806;38.082;2023-02-01T01:02:16;98061.69;;;2.15;65.45
55990;BME280;41875;55.806;38.082;2023-02-01T01:04:45;98060.09;;;2.80;64.23
55990;BME280;41875;55.806;38.082;2023-02-01T01:07:14;98064.50;;;2.41;64.64
55990;BME280;41875;55.806;38.082;2023-02-01T01:09:43;98062.88;;;2.31;64.81
55990;BME280;41875;55.806;38.082;2023-02-01T01:12:12;98068.47;;;1.88;66.41
55990;BME280;41875;55.806;38.082;2023-02-01T01:14:41;98062.94;;;2.11;66.08
55990;BME280;41875;55.806;38.082;2023-02-01T01:17:09;98061.78;;;2.33;65.02
55990;BME280;41875;55.806;38.082;2023-02-01T01:19:38;98067.31;;;2.10;65.25
55990;BME280;41875;55.806;38.082;2023-02-01T01:22:09;98065.56;;;2.01;65.49
55990;BME280;41875;55.806;38.082;2023-02-01T01:24:38;98069.66;;;2.61;64.19
55990;BME280;41875;55.806;38.082;2023-02-01T01:27:08;98068.44;;;2.18;65.66
55990;BME280;41875;55.806;38.082;2023-02-01T01:29:36;98074.34;;;2.10;65.47
55990;BME280;41875;55.806;38.082;2023-02-01T01:32:05;98068.72;;;2.05;65.37
55990;BME280;41875;55.806;38.082;2023-02-01T01:34:35;98074.53;;;2.36;64.50
55990;BME280;41875;55.806;38.082;2023-02-01T01:37:07;98073.97;;;1.85;66.13
55990;BME280;41875;55.806;38.082;2023-02-01T01:39:35;98072.94;;;2.25;65.62
55990;BME280;41875;55.806;38.082;2023-02-01T01:42:03;98074.16;;;2.69;63.65
55990;BME280;41875;55.806;38.082;2023-02-01T01:44:59;98078.28;;;2.34;65.20
55990;BME280;41875;55.806;38.082;2023-02-01T01:47:34;98079.88;;;1.77;65.85
55990;BME280;41875;55.806;38.082;2023-02-01T01:50:07;98079.16;;;2.05;66.18
55990;BME280;41875;55.806;38.082;2023-02-01T01:52:39;98069.84;;;1.92;65.76
55990;BME280;41875;55.806;38.082;2023-02-01T01:55:09;98068.69;;;2.24;64.56
55990;BME280;41875;55.806;38.082;2023-02-01T01:57:41;98068.31;;;2.00;65.61
55990;BME280;41875;55.806;38.082;2023-02-01T02:00:14;98070.38;;;1.76;66.35
55990;BME280;41875;55.806;38.082;2023-02-01T02:02:46;98080.59;;;2.37;64.80
55990;BME280;41875;55.806;38.082;2023-02-01T02:05:17;98078.06;;;2.07;65.35
55990;BME280;41875;55.806;38.082;2023-02-01T02:07:48;98079.25;;;2.23;64.95
55990;BME280;41875;55.806;38.082;2023-02-01T02:10:18;98074.69;;;2.35;64.43
55990;BME280;41875;55.806;38.082;2023-02-01T02:12:48;98079.13;;;2.72;63.38
55990;BME280;41875;55.806;38.082;2023-02-01T02:15:18;98079.25;;;2.23;64.98
55990;BME280;41875;55.806;38.082;2023-02-01T02:17:55;98091.28;;;2.53;63.68
55990;BME280;41875;55.806;38.082;2023-02-01T02:24:09;98097.34;;;2.44;64.80
55990;BME280;41875;55.806;38.082;2023-02-01T02:26:57;98089.50;;;2.44;64.57
55990;BME280;41875;55.806;38.082;2023-02-01T02:32:47;98097.25;;;2.36;65.01
55990;BME280;41875;55.806;38.082;2023-02-01T02:35:27;98097.13;;;2.27;64.81
55990;BME280;41875;55.806;38.082;2023-02-01T02:38:07;98094.56;;;2.18;64.66
55990;BME280;41875;55.806;38.082;2023-02-01T02:40:46;98089.34;;;1.98;65.53
55990;BME280;41875;55.806;38.082;2023-02-01T02:43:21;98096.78;;;2.50;64.40
55990;BME280;41875;55.806;38.082;2023-02-01T02:46:16;98092.81;;;1.89;65.06
55990;BME280;41875;55.806;38.082;2023-02-01T02:49:11;98099.09;;;2.16;64.90
55990;BME280;41875;55.806;38.082;2023-02-01T02:51:44;98097.50;;;2.42;64.05
55990;BME280;41875;55.806;38.082;2023-02-01T02:54:33;98096.72;;;2.32;64.07
55990;BME280;41875;55.806;38.082;2023-02-01T02:57:19;98098.06;;;2.74;62.90
55990;BME280;41875;55.806;38.082;2023-02-01T03:00:09;98110.19;;;2.27;63.87
55990;BME280;41875;55.806;38.082;2023-02-01T03:02:55;98101.94;;;2.42;63.76
55990;BME280;41875;55.806;38.082;2023-02-01T03:05:43;98104.94;;;2.37;63.76
55990;BME280;41875;55.806;38.082;2023-02-01T03:08:19;98094.13;;;2.22;63.85
55990;BME280;41875;55.806;38.082;2023-02-01T03:10:53;98098.28;;;1.66;65.87
55990;BME280;41875;55.806;38.082;2023-02-01T03:13:30;98095.50;;;2.17;64.45
55990;BME280;41875;55.806;38.082;2023-02-01T03:16:04;98103.09;;;1.61;66.08
55990;BME280;41875;55.806;38.082;2023-02-01T03:18:44;98102.81;;;1.64;66.04
55990;BME280;41875;55.806;38.082;2023-02-01T03:21:26;98088.63;;;2.25;63.88
55990;BME280;41875;55.806;38.082;2023-02-01T03:24:04;98101.88;;;1.85;64.81
55990;BME280;41875;55.806;38.082;2023-02-01T03:26:43;98086.47;;;1.81;65.04
55990;BME280;41875;55.806;38.082;2023-02-01T03:29:17;98104.63;;;1.73;65.74
55990;BME280;41875;55.806;38.082;2023-02-01T03:31:48;98100.03;;;2.34;63.81
55990;BME280;41875;55.806;38.082;2023-02-01T03:34:19;98113.91;;;1.17;67.51
55990;BME280;41875;55.806;38.082;2023-02-01T03:36:51;98098.56;;;1.82;65.08
55990;BME280;41875;55.806;38.082;2023-02-01T03:39:28;98105.69;;;1.31;67.87
55990;BME280;41875;55.806;38.082;2023-02-01T03:42:04;98092.38;;;1.34;67.44
55990;BME280;41875;55.806;38.082;2023-02-01T03:44:36;98114.50;;;1.60;66.71
55990;BME280;41875;55.806;38.082;2023-02-01T03:47:11;98103.50;;;1.66;66.22
55990;BME280;41875;55.806;38.082;2023-02-01T03:49:46;98106.66;;;1.40;66.68
55990;BME280;41875;55.806;38.082;2023-02-01T03:52:18;98102.41;;;1.78;66.27
55990;BME280;41875;55.806;38.082;2023-02-01T03:54:50;98109.66;;;1.45;66.72
55990;BME280;41875;55.806;38.082;2023-02-01T03:57:24;98112.16;;;1.96;65.67
55990;BME280;41875;55.806;38.082;2023-02-01T04:00:04;98121.09;;;2.03;65.95
55990;BME280;41875;55.806;38.082;2023-02-01T04:02:39;98116.28;;;1.59;66.23
55990;BME280;41875;55.806;38.082;2023-02-01T04:05:08;98117.38;;;1.86;65.77
55990;BME280;41875;55.806;38.082;2023-02-01T04:07:42;98128.53;;;1.78;66.16
55990;BME280;41875;55.806;38.082;2023-02-01T04:10:14;98133.03;;;1.66;66.42
55990;BME280;41875;55.806;38.082;2023-02-01T04:12:45;98137.16;;;1.98;64.91
55990;BME280;41875;55.806;38.082;2023-02-01T04:15:14;98129.22;;;2.10;64.95
55990;BME280;41875;55.806;38.082;2023-02-01T04:17:42;98143.22;;;1.99;65.13
55990;BME280;41875;55.806;38.082;2023-02-01T04:20:11;98154.34;;;1.72;66.46
55990;BME280;41875;55.806;38.082;2023-02-01T04:22:41;98151.50;;;1.94;66.07
55990;BME280;41875;55.806;38.082;2023-02-01T04:25:10;98150.47;;;2.35;64.50
55990;BME280;41875;55.806;38.082;2023-02-01T04:27:39;98150.56;;;2.63;63.63
55990;BME280;41875;55.806;38.082;2023-02-01T04:30:09;98153.75;;;2.56;63.32
55990;BME280;41875;55.806;38.082;2023-02-01T04:32:40;98166.59;;;1.91;65.87
55990;BME280;41875;55.806;38.082;2023-02-01T04:35:08;98159.31;;;2.81;63.84
55990;BME280;41875;55.806;38.082;2023-02-01T04:37:38;98165.31;;;2.44;63.74
55990;BME280;41875;55.806;38.082;2023-02-01T04:40:08;98174.00;;;2.15;64.53
55990;BME280;41875;55.806;38.082;2023-02-01T04:42:36;98167.53;;;2.29;64.22
55990;BME280;41875;55.806;38.082;2023-02-01T04:45:07;98161.47;;;2.48;63.81
55990;BME280;41875;55.806;38.082;2023-02-01T04:47:36;98175.66;;;1.67;66.86
55990;BME280;41875;55.806;38.082;2023-02-01T04:50:05;98164.53;;;2.04;65.22
55990;BME280;41875;55.806;38.082;2023-02-01T04:52:37;98171.94;;;2.28;64.66
55990;BME280;41875;55.806;38.082;2023-02-01T04:55:06;98170.59;;;2.15;64.66
55990;BME280;41875;55.806;38.082;2023-02-01T04:57:35;98178.69;;;2.21;65.13
55990;BME280;41875;55.806;38.082;2023-02-01T05:00:09;98187.06;;;1.76;65.83
55990;BME280;41875;55.806;38.082;2023-02-01T05:02:38;98194.38;;;2.02;65.33
55990;BME280;41875;55.806;38.082;2023-02-01T05:05:09;98179.66;;;2.20;64.43
55990;BME280;41875;55.806;38.082;2023-02-01T05:07:38;98185.72;;;1.91;65.38
55990;BME280;41875;55.806;38.082;2023-02-01T05:10:07;98186.09;;;2.26;64.61
55990;BME280;41875;55.806;38.082;2023-02-01T05:12:36;98197.94;;;2.10;65.18
55990;BME280;41875;55.806;38.082;2023-02-01T05:15:23;98192.28;;;2.54;63.99
55990;BME280;41875;55.806;38.082;2023-02-01T05:17:52;98193.41;;;2.42;63.95
55990;BME280;41875;55.806;38.082;2023-02-01T05:20:21;98196.44;;;2.08;65.25
55990;BME280;41875;55.806;38.082;2023-02-01T05:22:50;98187.19;;;1.64;66.04
55990;BME280;41875;55.806;38.082;2023-02-01T05:25:19;98204.00;;;2.01;65.26
55990;BME280;41875;55.806;38.082;2023-02-01T05:27:47;98202.75;;;2.05;65.61
55990;BME280;41875;55.806;38.082;2023-02-01T05:30:15;98200.91;;;1.57;66.64
55990;BME280;41875;55.806;38.082;2023-02-01T05:32:49;98181.72;;;2.17;64.76
55990;BME280;41875;55.806;38.082;2023-02-01T05:35:17;98185.56;;;2.12;65.40
55990;BME280;41875;55.806;38.082;2023-02-01T05:37:48;98191.84;;;2.59;64.49
55990;BME280;41875;55.806;38.082;2023-02-01T05:40:17;98189.97;;;2.02;65.51
55990;BME280;41875;55.806;38.082;2023-02-01T05:42:45;98192.97;;;1.97;66.04
55990;BME280;41875;55.806;38.082;2023-02-01T05:45:14;98197.66;;;1.94;66.06
55990;BME280;41875;55.806;38.082;2023-02-01T05:47:42;98201.25;;;2.03;65.26
55990;BME280;41875;55.806;38.082;2023-02-01T05:50:12;98208.13;;;2.13;65.13
55990;BME280;41875;55.806;38.082;2023-02-01T05:52:41;98203.97;;;2.50;63.69
55990;BME280;41875;55.806;38.082;2023-02-01T05:55:09;98203.16;;;2.20;65.05
55990;BME280;41875;55.806;38.082;2023-02-01T05:57:38;98199.13;;;2.65;64.54
55990;BME280;41875;55.806;38.082;2023-02-01T06:00:07;98205.88;;;2.58;64.19
55990;BME280;41875;55.806;38.082;2023-02-01T06:02:41;98204.56;;;2.92;63.00
55990;BME280;41875;55.806;38.082;2023-02-01T06:05:09;98201.84;;;2.83;62.70
55990;BME280;41875;55.806;38.082;2023-02-01T06:07:39;98210.28;;;2.57;63.32
55990;BME280;41875;55.806;38.082;2023-02-01T06:10:09;98213.31;;;2.43;63.70
55990;BME280;41875;55.806;38.082;2023-02-01T06:12:38;98217.31;;;2.57;63.35
55990;BME280;41875;55.806;38.082;2023-02-01T06:15:07;98210.16;;;2.29;64.52
55990;BME280;41875;55.806;38.082;2023-02-01T06:17:35;98210.72;;;3.00;62.69
55990;BME280;41875;55.806;38.082;2023-02-01T06:20:05;98219.47;;;2.81;62.56
55990;BME280;41875;55.806;38.082;2023-02-01T06:22:33;98222.69;;;1.96;64.75
55990;BME280;41875;55.806;38.082;2023-02-01T06:25:05;98230.38;;;2.37;64.21
55990;BME280;41875;55.806;38.082;2023-02-01T06:27:34;98222.41;;;2.39;64.05
55990;BME280;41875;55.806;38.082;2023-02-01T06:30:04;98230.00;;;2.42;64.34
55990;BME280;41875;55.806;38.082;2023-02-01T06:32:33;98234.16;;;3.02;62.71
55990;BME280;41875;55.806;38.082;2023-02-01T06:35:02;98241.53;;;3.54;62.03
55990;BME280;41875;55.806;38.082;2023-02-01T06:37:30;98224.41;;;2.94;61.76
55990;BME280;41875;55.806;38.082;2023-02-01T06:39:59;98253.09;;;2.56;63.54
55990;BME280;41875;55.806;38.082;2023-02-01T06:42:29;98249.78;;;2.35;64.15
55990;BME280;41875;55.806;38.082;2023-02-01T06:45:12;98254.84;;;1.97;65.12
55990;BME280;41875;55.806;38.082;2023-02-01T06:47:40;98260.25;;;2.35;64.93
55990;BME280;41875;55.806;38.082;2023-02-01T06:50:10;98254.38;;;3.10;62.74
55990;BME280;41875;55.806;38.082;2023-02-01T06:52:38;98246.84;;;2.87;63.05
55990;BME280;41875;55.806;38.082;2023-02-01T06:55:10;98248.09;;;2.73;62.81
55990;BME280;41875;55.806;38.082;2023-02-01T06:57:43;98243.16;;;2.70;62.93
55990;BME280;41875;55.806;38.082;2023-02-01T07:00:18;98249.25;;;2.31;64.23
55990;BME280;41875;55.806;38.082;2023-02-01T07:02:52;98254.44;;;2.11;65.23
55990;BME280;41875;55.806;38.082;2023-02-01T07:05:21;98253.56;;;2.89;62.85
55990;BME280;41875;55.806;38.082;2023-02-01T07:07:49;98239.53;;;2.81;62.07
55990;BME280;41875;55.806;38.082;2023-02-01T07:10:18;98247.97;;;2.74;62.69
55990;BME280;41875;55.806;38.082;2023-02-01T07:12:49;98243.44;;;2.77;62.21
55990;BME280;41875;55.806;38.082;2023-02-01T07:15:18;98213.84;;;2.66;62.32
55990;BME280;41875;55.806;38.082;2023-02-01T07:17:47;98210.66;;;3.20;60.30
55990;BME280;41875;55.806;38.082;2023-02-01T07:20:16;98234.91;;;2.74;61.37
55990;BME280;41875;55.806;38.082;2023-02-01T07:22:45;98252.75;;;2.89;61.12
55990;BME280;41875;55.806;38.082;2023-02-01T07:25:14;98265.09;;;3.16;61.71
55990;BME280;41875;55.806;38.082;2023-02-01T07:27:42;98258.88;;;3.55;60.32
55990;BME280;41875;55.806;38.082;2023-02-01T07:30:12;98264.28;;;3.06;60.87
55990;BME280;41875;55.806;38.082;2023-02-01T07:32:41;98259.25;;;2.75;61.64
55990;BME280;41875;55.806;38.082;2023-02-01T07:35:09;98270.31;;;3.54;61.40
55990;BME280;41875;55.806;38.082;2023-02-01T07:37:38;98273.72;;;3.64;59.38
55990;BME280;41875;55.806;38.082;2023-02-01T07:40:07;98259.59;;;3.47;59.29
55990;BME280;41875;55.806;38.082;2023-02-01T07:42:36;98279.94;;;3.26;59.79
55990;BME280;41875;55.806;38.082;2023-02-01T07:45:06;98265.84;;;2.79;61.41
55990;BME280;41875;55.806;38.082;2023-02-01T07:47:48;98277.97;;;2.80;61.67
55990;BME280;41875;55.806;38.082;2023-02-01T07:50:19;98271.47;;;2.94;61.19
55990;BME280;41875;55.806;38.082;2023-02-01T07:52:48;98279.03;;;2.97;60.73
55990;BME280;41875;55.806;38.082;2023-02-01T07:55:17;98280.63;;;3.56;59.20
55990;BME280;41875;55.806;38.082;2023-02-01T07:57:46;98276.91;;;3.20;60.21
55990;BME280;41875;55.806;38.082;2023-02-01T08:00:15;98278.69;;;3.58;58.83
55990;BME280;41875;55.806;38.082;2023-02-01T08:03:04;98279.34;;;2.84;61.65
55990;BME280;41875;55.806;38.082;2023-02-01T08:05:32;98270.72;;;3.12;60.40
55990;BME280;41875;55.806;38.082;2023-02-01T08:08:01;98276.28;;;3.46;59.13
55990;BME280;41875;55.806;38.082;2023-02-01T08:10:30;98284.75;;;3.58;58.74
55990;BME280;41875;55.806;38.082;2023-02-01T08:12:59;98272.94;;;3.54;58.85
55990;BME280;41875;55.806;38.082;2023-02-01T08:15:30;98275.28;;;3.85;58.73
55990;BME280;41875;55.806;38.082;2023-02-01T08:17:59;98264.72;;;3.39;58.89
55990;BME280;41875;55.806;38.082;2023-02-01T08:20:30;98271.03;;;3.46;58.75
55990;BME280;41875;55.806;38.082;2023-02-01T08:23:08;98255.94;;;3.58;58.69
55990;BME280;41875;55.806;38.082;2023-02-01T08:25:53;98259.97;;;4.26;57.10
55990;BME280;41875;55.806;38.082;2023-02-01T08:28:35;98262.59;;;3.80;57.83
55990;BME280;41875;55.806;38.082;2023-02-01T08:31:09;98261.72;;;3.90;57.40
55990;BME280;41875;55.806;38.082;2023-02-01T08:33:44;98255.47;;;3.45;58.21
55990;BME280;41875;55.806;38.082;2023-02-01T08:36:25;98263.66;;;2.65;60.85
55990;BME280;41875;55.806;38.082;2023-02-01T08:39:06;98260.91;;;3.61;59.19
55990;BME280;41875;55.806;38.082;2023-02-01T08:41:56;98260.59;;;3.92;57.62
55990;BME280;41875;55.806;38.082;2023-02-01T08:44:44;98257.84;;;4.30;56.86
55990;BME280;41875;55.806;38.082;2023-02-01T08:47:16;98263.41;;;4.45;55.55
55990;BME280;41875;55.806;38.082;2023-02-01T08:49:51;98260.88;;;3.89;56.82
55990;BME280;41875;55.806;38.082;2023-02-01T08:52:45;98266.47;;;4.22;57.04
55990;BME280;41875;55.806;38.082;2023-02-01T08:55:20;98270.41;;;4.08;56.28
55990;BME280;41875;55.806;38.082;2023-02-01T08:57:48;98267.38;;;4.31;55.70
55990;BME280;41875;55.806;38.082;2023-02-01T09:00:17;98264.44;;;4.52;55.22
55990;BME280;41875;55.806;38.082;2023-02-01T09:02:52;98257.69;;;3.95;56.40
55990;BME280;41875;55.806;38.082;2023-02-01T09:05:20;98259.97;;;3.80;56.60
55990;BME280;41875;55.806;38.082;2023-02-01T09:08:16;98265.63;;;4.04;56.88
55990;BME280;41875;55.806;38.082;2023-02-01T09:10:50;98262.78;;;3.69;57.42
55990;BME280;41875;55.806;38.082;2023-02-01T09:13:18;98220.78;;;3.89;55.85
55990;BME280;41875;55.806;38.082;2023-02-01T09:15:52;98241.34;;;4.02;56.07
55990;BME280;41875;55.806;38.082;2023-02-01T09:18:25;98247.28;;;4.40;54.99
55990;BME280;41875;55.806;38.082;2023-02-01T09:20:54;98241.50;;;4.54;54.35
55990;BME280;41875;55.806;38.082;2023-02-01T09:23:27;98261.69;;;4.80;54.21
55990;BME280;41875;55.806;38.082;2023-02-01T09:26:02;98256.44;;;4.36;54.88
55990;BME280;41875;55.806;38.082;2023-02-01T09:28:31;98260.19;;;4.33;55.39
55990;BME280;41875;55.806;38.082;2023-02-01T09:30:59;98266.91;;;4.00;56.82
55990;BME280;41875;55.806;38.082;2023-02-01T09:33:29;98257.94;;;4.56;55.16
55990;BME280;41875;55.806;38.082;2023-02-01T09:35:58;98244.88;;;4.47;55.06
55990;BME280;41875;55.806;38.082;2023-02-01T09:38:31;98225.63;;;4.56;54.01
55990;BME280;41875;55.806;38.082;2023-02-01T09:41:10;98250.88;;;4.39;55.26
55990;BME280;41875;55.806;38.082;2023-02-01T09:43:50;98250.13;;;4.47;55.32
55990;BME280;41875;55.806;38.082;2023-02-01T09:46:24;98256.28;;;4.55;55.35
55990;BME280;41875;55.806;38.082;2023-02-01T09:49:10;98241.44;;;4.28;55.92
55990;BME280;41875;55.806;38.082;2023-02-01T09:51:50;98250.44;;;4.43;55.86
55990;BME280;41875;55.806;38.082;2023-02-01T09:54:40;98236.94;;;4.02;56.32
55990;BME280;41875;55.806;38.082;2023-02-01T09:57:18;98238.53;;;3.67;57.44
55990;BME280;41875;55.806;38.082;2023-02-01T09:59:58;98238.91;;;4.18;55.84
55990;BME280;41875;55.806;38.082;2023-02-01T10:02:39;98238.31;;;3.78;56.39
55990;BME280;41875;55.806;38.082;2023-02-01T10:05:13;98235.56;;;3.62;57.15
55990;BME280;41875;55.806;38.082;2023-02-01T10:07:53;98223.91;;;4.10;56.71
55990;BME280;41875;55.806;38.082;2023-02-01T10:10:28;98236.06;;;4.30;55.62
55990;BME280;41875;55.806;38.082;2023-02-01T10:13:18;98234.22;;;3.20;58.52
55990;BME280;41875;55.806;38.082;2023-02-01T10:16:04;98243.75;;;3.11;59.08
55990;BME280;41875;55.806;38.082;2023-02-01T10:18:51;98233.50;;;4.02;56.35
55990;BME280;41875;55.806;38.082;2023-02-01T10:21:33;98236.38;;;3.62;57.37
55990;BME280;41875;55.806;38.082;2023-02-01T10:24:17;98239.53;;;4.75;54.91
55990;BME280;41875;55.806;38.082;2023-02-01T10:26:53;98233.25;;;3.95;56.30
55990;BME280;41875;55.806;38.082;2023-02-01T10:29:27;98226.22;;;3.77;56.36
55990;BME280;41875;55.806;38.082;2023-02-01T10:31:59;98216.53;;;2.94;58.35
55990;BME280;41875;55.806;38.082;2023-02-01T10:34:31;98233.31;;;3.39;57.79
55990;BME280;41875;55.806;38.082;2023-02-01T10:37:11;98227.63;;;3.16;58.64
55990;BME280;41875;55.806;38.082;2023-02-01T10:39:46;98229.81;;;3.48;57.46
55990;BME280;41875;55.806;38.082;2023-02-01T10:42:26;98224.28;;;3.51;57.42
55990;BME280;41875;55.806;38.082;2023-02-01T10:44:57;98232.16;;;4.16;56.47
55990;BME280;41875;55.806;38.082;2023-02-01T10:47:29;98228.69;;;3.97;55.60
55990;BME280;41875;55.806;38.082;2023-02-01T10:50:03;98222.44;;;4.97;53.93
55990;BME280;41875;55.806;38.082;2023-02-01T10:52:44;98220.50;;;4.72;54.07
55990;BME280;41875;55.806;38.082;2023-02-01T10:55:30;98232.47;;;4.12;55.58
55990;BME280;41875;55.806;38.082;2023-02-01T10:58:06;98246.25;;;4.51;54.83
55990;BME280;41875;55.806;38.082;2023-02-01T11:00:46;98234.34;;;4.38;54.29
55990;BME280;41875;55.806;38.082;2023-02-01T11:06:26;98220.94;;;4.23;55.54
55990;BME280;41875;55.806;38.082;2023-02-01T11:08:57;98225.59;;;3.65;56.68
55990;BME280;41875;55.806;38.082;2023-02-01T11:11:27;98214.88;;;4.23;55.41
55990;BME280;41875;55.806;38.082;2023-02-01T11:14:00;98223.63;;;3.77;56.03
55990;BME280;41875;55.806;38.082;2023-02-01T11:16:32;98230.19;;;3.81;56.44
55990;BME280;41875;55.806;38.082;2023-02-01T11:19:02;98215.25;;;4.10;55.48
55990;BME280;41875;55.806;38.082;2023-02-01T11:21:31;98215.75;;;3.77;56.37
55990;BME280;41875;55.806;38.082;2023-02-01T11:24:11;98218.75;;;4.37;54.86
55990;BME280;41875;55.806;38.082;2023-02-01T11:26:46;98217.78;;;4.20;55.19
55990;BME280;41875;55.806;38.082;2023-02-01T11:29:16;98221.88;;;4.40;56.02
55990;BME280;41875;55.806;38.082;2023-02-01T11:31:48;98224.66;;;4.39;54.23
55990;BME280;41875;55.806;38.082;2023-02-01T11:34:21;98216.97;;;3.83;55.95
55990;BME280;41875;55.806;38.082;2023-02-01T11:36:52;98234.03;;;4.05;55.68
55990;BME280;41875;55.806;38.082;2023-02-01T11:39:27;98234.41;;;4.29;54.86
55990;BME280;41875;55.806;38.082;2023-02-01T11:42:01;98232.00;;;3.99;55.78
55990;BME280;41875;55.806;38.082;2023-02-01T11:44:36;98234.81;;;3.70;56.27
55990;BME280;41875;55.806;38.082;2023-02-01T11:47:26;98243.97;;;3.84;56.06
55990;BME280;41875;55.806;38.082;2023-02-01T11:49:57;98227.19;;;3.20;57.44
55990;BME280;41875;55.806;38.082;2023-02-01T11:52:47;98243.50;;;3.70;56.86
55990;BME280;41875;55.806;38.082;2023-02-01T11:55:35;98249.06;;;3.19;57.68
55990;BME280;41875;55.806;38.082;2023-02-01T12:01:15;98245.66;;;3.19;57.47
55990;BME280;41875;55.806;38.082;2023-02-01T12:06:48;98259.09;;;2.86;58.64
55990;BME280;41875;55.806;38.082;2023-02-01T12:09:34;98252.94;;;2.78;58.67
55990;BME280;41875;55.806;38.082;2023-02-01T12:12:15;98262.78;;;3.03;58.52
55990;BME280;41875;55.806;38.082;2023-02-01T12:14:59;98263.06;;;2.90;58.60
55990;BME280;41875;55.806;38.082;2023-02-01T12:17:45;98275.25;;;3.19;57.63
55990;BME280;41875;55.806;38.082;2023-02-01T12:20:39;98268.31;;;3.38;57.01
55990;BME280;41875;55.806;38.082;2023-02-01T12:23:27;98276.16;;;2.90;57.97
55990;BME280;41875;55.806;38.082;2023-02-01T12:26:13;98279.78;;;2.50;59.59
55990;BME280;41875;55.806;38.082;2023-02-01T12:29:24;98273.41;;;2.82;58.42
55990;BME280;41875;55.806;38.082;2023-02-01T12:32:09;98269.59;;;3.62;56.70
55990;BME280;41875;55.806;38.082;2023-02-01T12:37:54;98278.44;;;3.13;57.54
55990;BME280;41875;55.806;38.082;2023-02-01T12:40:35;98276.53;;;3.15;57.28
55990;BME280;41875;55.806;38.082;2023-02-01T12:43:13;98279.41;;;3.12;58.00
55990;BME280;41875;55.806;38.082;2023-02-01T12:45:52;98281.75;;;3.53;56.53
55990;BME280;41875;55.806;38.082;2023-02-01T12:48:29;98279.47;;;2.73;58.02
55990;BME280;41875;55.806;38.082;2023-02-01T12:51:03;98283.44;;;2.97;57.46
55990;BME280;41875;55.806;38.082;2023-02-01T12:53:42;98287.34;;;3.30;56.79
55990;BME280;41875;55.806;38.082;2023-02-01T12:56:16;98290.66;;;3.32;56.84
55990;BME280;41875;55.806;38.082;2023-02-01T12:58:53;98291.72;;;3.02;56.97
55990;BME280;41875;55.806;38.082;2023-02-01T13:01:31;98298.53;;;3.13;57.30
55990;BME280;41875;55.806;38.082;2023-02-01T13:04:17;98302.38;;;3.18;56.70
55990;BME280;41875;55.806;38.082;2023-02-01T13:06:53;98301.38;;;3.39;56.21
55990;BME280;41875;55.806;38.082;2023-02-01T13:09:29;98293.41;;;3.31;56.68
55990;BME280;41875;55.806;38.082;2023-02-01T13:12:04;98288.22;;;3.21;56.95
55990;BME280;41875;55.806;38.082;2023-02-01T13:14:39;98302.03;;;2.84;57.94
55990;BME280;41875;55.806;38.082;2023-02-01T13:17:14;98302.34;;;2.71;58.58
55990;BME280;41875;55.806;38.082;2023-02-01T13:19:46;98301.72;;;3.16;57.58
55990;BME280;41875;55.806;38.082;2023-02-01T13:22:21;98300.44;;;3.30;56.46
55990;BME280;41875;55.806;38.082;2023-02-01T13:24:54;98308.06;;;3.04;57.39
55990;BME280;41875;55.806;38.082;2023-02-01T13:27:30;98303.78;;;3.03;57.58
55990;BME280;41875;55.806;38.082;2023-02-01T13:30:01;98295.22;;;3.20;57.16
55990;BME280;41875;55.806;38.082;2023-02-01T13:33:12;98300.13;;;3.99;55.72
55990;BME280;41875;55.806;38.082;2023-02-01T13:36:28;98313.16;;;3.63;56.59
55990;BME280;41875;55.806;38.082;2023-02-01T13:42:14;98299.75;;;3.66;56.52
55990;BME280;41875;55.806;38.082;2023-02-01T13:44:47;98301.41;;;3.67;56.43
55990;BME280;41875;55.806;38.082;2023-02-01T13:47:24;98300.31;;;3.32;56.84
55990;BME280;41875;55.806;38.082;2023-02-01T13:49:55;98298.16;;;3.17;57.31
55990;BME280;41875;55.806;38.082;2023-02-01T13:52:29;98298.16;;;3.08;57.92
55990;BME280;41875;55.806;38.082;2023-02-01T13:55:25;98305.66;;;3.30;57.10
55990;BME280;41875;55.806;38.082;2023-02-01T13:58:06;98297.72;;;3.12;57.71
55990;BME280;41875;55.806;38.082;2023-02-01T14:00:39;98300.19;;;3.24;57.01